createdAt,value
2022-08-17T00:00:40.543Z,2.86
2022-08-17T00:05:48.667Z,2.85
2022-08-17T00:10:56.633Z,2.85
2022-08-17T00:16:04.699Z,2.86
2022-08-17T00:21:11.239Z,2.85
2022-08-17T00:26:19.598Z,2.84
2022-08-17T00:31:28.033Z,2.85
2022-08-17T00:36:36.927Z,2.84
2022-08-17T00:41:44.549Z,2.85
2022-08-17T00:46:51.738Z,2.86
2022-08-17T00:51:59.442Z,2.85
2022-08-17T00:57:07.047Z,2.86
2022-08-17T01:02:15.886Z,2.85
2022-08-17T01:07:23.435Z,2.84
2022-08-17T01:12:31.493Z,2.85
2022-08-17T01:17:38.814Z,2.85
2022-08-17T01:22:47.762Z,2.85
2022-08-17T01:37:06.309Z,2.86
2022-08-17T01:42:12.797Z,2.85
2022-08-17T01:47:22.330Z,2.86
2022-08-17T01:52:28.383Z,2.84
2022-08-17T01:57:36.216Z,2.85
2022-08-17T02:02:43.432Z,2.84
2022-08-17T02:07:50.570Z,2.84
2022-08-17T02:12:58.784Z,2.84
2022-08-17T02:18:06.306Z,2.84
2022-08-17T02:23:13.499Z,2.84
2022-08-17T02:28:21.129Z,2.84
2022-08-17T02:33:27.903Z,2.84
2022-08-17T02:38:36.896Z,2.83
2022-08-17T02:43:44.237Z,2.84
2022-08-17T02:48:52.338Z,2.83
2022-08-17T02:53:59.965Z,2.84
2022-08-17T02:59:07.514Z,2.83
2022-08-17T03:04:14.359Z,2.83
2022-08-17T03:09:22.323Z,2.83
2022-08-17T03:14:30.273Z,2.82
2022-08-17T03:19:37.322Z,2.83
2022-08-17T03:24:44.632Z,2.83
2022-08-17T03:29:52.212Z,2.83
2022-08-17T03:35:00.166Z,2.83
2022-08-17T03:40:07.290Z,2.83
2022-08-17T03:45:14.486Z,2.83
2022-08-17T03:50:22.870Z,2.83
2022-08-17T03:55:31.018Z,2.83
2022-08-17T04:00:37.334Z,2.82
2022-08-17T04:05:45.174Z,2.83
2022-08-17T04:10:54.044Z,2.83
2022-08-17T04:16:02.316Z,2.83
2022-08-17T04:21:10.133Z,2.83
2022-08-17T04:26:17.997Z,2.83
2022-08-17T04:31:25.636Z,2.84
2022-08-17T04:36:34.705Z,2.86
2022-08-17T04:41:44.263Z,2.89
2022-08-17T04:46:51.690Z,2.89
2022-08-17T04:52:07.262Z,2.91
2022-08-17T04:57:15.385Z,2.92
2022-08-17T05:02:22.315Z,2.92
2022-08-17T05:07:29.487Z,2.91
2022-08-17T05:12:37.384Z,2.92
2022-08-17T05:17:44.770Z,2.92
2022-08-17T05:22:52.496Z,2.92
2022-08-17T05:27:59.611Z,2.92
2022-08-17T05:33:07.868Z,2.92
2022-08-17T05:38:15.859Z,2.92
2022-08-17T05:43:24.038Z,2.93
2022-08-17T05:48:38.085Z,2.94
2022-08-17T05:53:45.853Z,2.93
2022-08-17T05:58:54.066Z,2.93
2022-08-17T06:04:01.888Z,2.93
2022-08-17T06:09:09.188Z,2.94
2022-08-17T06:14:16.983Z,2.94
2022-08-17T06:19:23.934Z,2.94
2022-08-17T06:24:31.527Z,2.93
2022-08-17T06:29:38.146Z,2.92
2022-08-17T06:34:45.750Z,2.92
2022-08-17T06:39:53.781Z,2.92
2022-08-17T06:45:00.393Z,2.92
2022-08-17T06:50:07.617Z,2.91
2022-08-17T06:55:15.280Z,2.91
2022-08-17T07:00:22.882Z,2.92
2022-08-17T07:05:31.092Z,2.91
2022-08-17T07:15:40.967Z,2.91
2022-08-17T07:16:43.775Z,2.91
2022-08-17T07:21:49.871Z,2.91
2022-08-17T07:26:57.575Z,2.91
2022-08-17T07:32:06.525Z,2.91
2022-08-17T07:37:13.841Z,2.92
2022-08-17T07:42:22.813Z,2.92
2022-08-17T07:47:30.172Z,2.91
2022-08-17T07:52:37.933Z,2.91
2022-08-17T07:57:45.003Z,2.92
2022-08-17T08:02:53.338Z,2.91
2022-08-17T08:08:02.948Z,2.92
2022-08-17T08:13:11.184Z,2.92
2022-08-17T08:23:47.713Z,2.91
2022-08-17T08:28:55.834Z,2.93
2022-08-17T08:34:03.451Z,2.93
2022-08-17T08:39:12.735Z,2.92
2022-08-17T08:44:20.652Z,2.94
2022-08-17T08:49:28.880Z,2.92
2022-08-17T08:54:37.287Z,2.93
2022-08-17T08:59:45.821Z,2.94
2022-08-17T09:04:54.241Z,2.94
2022-08-17T09:10:01.901Z,2.93
2022-08-17T09:15:09.866Z,2.93
2022-08-17T09:20:16.893Z,2.94
2022-08-17T09:25:24.358Z,2.92
2022-08-17T09:30:32.110Z,2.94
2022-08-17T09:35:40.387Z,2.95
2022-08-17T09:40:48.196Z,2.94
2022-08-17T09:45:56.614Z,2.93
2022-08-17T09:51:04.799Z,2.94
2022-08-17T09:56:12.412Z,2.94
2022-08-17T10:01:20.287Z,2.95
2022-08-17T10:06:27.415Z,2.94
2022-08-17T10:11:35.583Z,2.94
2022-08-17T10:16:43.710Z,2.94
2022-08-17T10:21:52.135Z,2.94
2022-08-17T10:26:59.014Z,2.94
2022-08-17T10:32:06.141Z,2.94
2022-08-17T10:37:13.811Z,2.94
2022-08-17T10:42:22.161Z,2.95
2022-08-17T10:47:29.250Z,2.95
2022-08-17T10:52:38.076Z,2.94
2022-08-17T10:57:45.593Z,2.95
2022-08-17T11:02:54.935Z,2.94
2022-08-17T11:08:02.168Z,2.95
2022-08-17T11:13:09.739Z,2.95
2022-08-17T11:18:18.363Z,2.95
2022-08-17T11:23:26.301Z,2.95
2022-08-17T11:28:33.537Z,2.96
2022-08-17T11:33:41.568Z,2.94
2022-08-17T11:38:50.331Z,2.95
2022-08-17T11:43:58.295Z,2.93
2022-08-17T11:49:06.006Z,2.96
2022-08-17T11:54:14.619Z,2.95
2022-08-17T11:59:27.809Z,2.95
2022-08-17T12:04:34.408Z,2.95
2022-08-17T12:09:42.276Z,2.95
2022-08-17T12:14:48.690Z,2.96
2022-08-17T12:19:55.413Z,2.95
2022-08-17T12:25:02.496Z,2.95
2022-08-17T12:30:10.808Z,2.94
2022-08-17T12:35:17.677Z,2.95
2022-08-17T12:40:24.540Z,2.95
2022-08-17T12:45:32.061Z,2.95
2022-08-17T12:50:39.825Z,2.95
2022-08-17T12:55:46.261Z,2.95
2022-08-17T13:00:54.939Z,2.95
2022-08-17T13:06:01.863Z,2.96
2022-08-17T13:11:09.053Z,2.95
2022-08-17T13:16:16.928Z,2.95
2022-08-17T13:21:25.254Z,2.96
2022-08-17T13:26:33.547Z,2.95
2022-08-17T13:31:41.800Z,2.95
2022-08-17T13:36:49.633Z,2.96
2022-08-17T13:41:56.042Z,2.96
2022-08-17T13:47:03.920Z,2.95
2022-08-17T13:52:12.521Z,2.96
2022-08-17T13:57:20.246Z,2.95
2022-08-17T14:02:27.451Z,2.97
2022-08-17T14:07:34.327Z,2.96
2022-08-17T14:12:42.832Z,2.97
2022-08-17T14:17:50.533Z,2.95
2022-08-17T14:22:58.495Z,2.97
2022-08-17T14:28:05.352Z,2.96
2022-08-17T14:33:13.353Z,2.96
2022-08-17T14:38:22.123Z,2.95
2022-08-17T14:43:29.497Z,2.97
2022-08-17T14:48:36.744Z,2.96
2022-08-17T14:53:45.046Z,2.97
2022-08-17T14:58:52.778Z,2.95
2022-08-17T15:04:04.789Z,2.95
2022-08-17T15:09:12.506Z,2.95
2022-08-17T15:14:19.735Z,2.94
2022-08-17T15:19:27.951Z,2.95
2022-08-17T15:24:34.778Z,2.95
2022-08-17T15:29:42.722Z,2.96
2022-08-17T15:34:51.028Z,2.95
2022-08-17T15:39:58.925Z,2.95
2022-08-17T15:45:06.760Z,2.95
2022-08-17T15:50:19.662Z,2.94
2022-08-17T15:55:27.193Z,2.94
2022-08-17T16:00:34.566Z,2.95
2022-08-17T16:05:41.053Z,2.95
2022-08-17T16:10:49.852Z,2.95
2022-08-17T16:15:56.447Z,2.94
2022-08-17T16:21:04.454Z,2.94
2022-08-17T16:26:12.627Z,2.95
2022-08-17T16:31:21.272Z,2.94
2022-08-17T16:36:28.911Z,2.95
2022-08-17T16:41:37.707Z,2.94
2022-08-17T16:46:44.341Z,2.94
2022-08-17T16:51:52.542Z,2.93
2022-08-17T16:57:00.636Z,2.94
2022-08-17T17:02:08.561Z,2.93
2022-08-17T17:07:15.866Z,2.94
2022-08-17T17:12:23.684Z,2.93
2022-08-17T17:17:31.681Z,2.93
2022-08-17T17:22:39.507Z,2.93
2022-08-17T17:27:46.861Z,2.95
2022-08-17T17:32:54.657Z,2.92
2022-08-17T17:38:02.557Z,2.94
2022-08-17T17:43:09.700Z,2.93
2022-08-17T17:48:16.985Z,2.92
2022-08-17T17:53:25.041Z,2.92
2022-08-17T17:58:32.510Z,2.92
2022-08-17T18:03:40.182Z,2.92
2022-08-17T18:08:47.560Z,2.91
2022-08-17T18:13:55.690Z,2.91
2022-08-17T18:19:03.295Z,2.91
2022-08-17T18:24:10.460Z,2.9
2022-08-17T18:29:17.749Z,2.9
2022-08-17T18:34:24.588Z,2.91
2022-08-17T18:39:33.281Z,2.9
2022-08-17T18:44:40.701Z,2.9
2022-08-17T18:49:48.193Z,2.9
2022-08-17T18:54:56.721Z,2.89
2022-08-17T19:00:10.785Z,2.89
2022-08-17T19:05:17.774Z,2.9
2022-08-17T19:10:24.895Z,2.9
2022-08-17T19:15:31.446Z,2.89
2022-08-17T19:20:38.661Z,2.89
2022-08-17T19:25:46.897Z,2.89
2022-08-17T19:30:53.696Z,2.89
2022-08-17T19:36:01.442Z,2.88
2022-08-17T19:41:10.200Z,2.88
2022-08-17T19:46:17.407Z,2.88
2022-08-17T19:51:26.760Z,2.88
2022-08-17T19:56:34.184Z,2.88
2022-08-17T20:01:42.617Z,2.88
2022-08-17T20:06:52.556Z,2.89
2022-08-17T20:12:00.184Z,2.88
2022-08-17T20:17:06.813Z,2.88
2022-08-17T20:22:14.012Z,2.87
2022-08-17T20:27:22.693Z,2.88
2022-08-17T20:32:30.617Z,2.88
2022-08-17T20:37:37.603Z,2.86
2022-08-17T20:42:45.050Z,2.87
2022-08-17T20:47:53.105Z,2.88
2022-08-17T20:53:01.053Z,2.87
2022-08-17T20:58:09.312Z,2.89
2022-08-17T21:03:16.092Z,2.88
2022-08-17T21:08:23.894Z,2.88
2022-08-17T21:13:31.769Z,2.88
2022-08-17T21:18:39.404Z,2.88
2022-08-17T21:23:47.486Z,2.88
2022-08-17T21:28:54.650Z,2.88
2022-08-17T21:34:01.855Z,2.87
2022-08-17T21:39:09.926Z,2.87
2022-08-17T21:44:19.915Z,2.86
2022-08-17T21:49:26.653Z,2.87
2022-08-17T21:54:33.860Z,2.88
2022-08-17T21:59:41.705Z,2.87
2022-08-17T22:04:49.994Z,2.87
2022-08-17T22:09:58.172Z,2.87
2022-08-17T22:15:05.957Z,2.86
2022-08-17T22:20:14.008Z,2.87
2022-08-17T22:25:22.542Z,2.88
2022-08-17T22:30:29.372Z,2.86
2022-08-17T22:35:37.021Z,2.86
2022-08-17T22:40:45.416Z,2.86
2022-08-17T22:45:53.737Z,2.87
2022-08-17T22:51:01.939Z,2.86
2022-08-17T22:56:09.218Z,2.88
2022-08-17T23:01:16.416Z,2.86
2022-08-17T23:06:23.413Z,2.87
2022-08-17T23:11:31.991Z,2.86
2022-08-17T23:16:40.578Z,2.86
2022-08-17T23:21:48.079Z,2.86
2022-08-17T23:26:55.854Z,2.86
2022-08-17T23:32:04.261Z,2.86
2022-08-17T23:37:11.341Z,2.86
2022-08-17T23:42:19.708Z,2.86
2022-08-17T23:47:27.821Z,2.86
2022-08-17T23:52:35.855Z,2.86
2022-08-17T23:57:44.134Z,2.86
